Time;durP1;ratioP1;P1;durP2;ratioP2;P2;SDS_P1;SDS_P2;PMS_P1;PMS_P2;Temp;Humidity;BMP_temperature;BMP_pressure;BME280_temperature;BME280_humidity;BME280_pressure;Samples;Min_cycle;Max_cycle;Signal;HPM_P1;HPM_P2
2023/06/27 03:16:05;;;;;;;1.90;0.20;;;21.60;59.30;;;;;;6163021;22;93655;-64
2023/06/27 03:18:31;;;;;;;9.02;1.70;;;21.70;59.90;;;;;;6246027;22;92958;-64
2023/06/27 03:20:57;;;;;;;4.35;0.80;;;21.60;60.20;;;;;;6246859;22;93456;-64
2023/06/27 03:23:22;;;;;;;5.60;0.50;;;21.60;60.40;;;;;;6247591;22;92329;-64
2023/06/27 03:25:48;;;;;;;2.30;0.50;;;21.50;60.70;;;;;;6246759;22;93550;-64
2023/06/27 03:28:14;;;;;;;6.50;0.50;;;21.50;60.60;;;;;;6246823;22;92896;-65
2023/06/27 03:30:43;;;;;;;4.57;0.55;;;21.40;60.90;;;;;;6247366;22;92267;-66
2023/06/27 03:33:10;;;;;;;6.93;0.68;;;21.50;60.10;;;;;;6219985;22;92444;-65
2023/06/27 03:35:35;;;;;;;3.55;0.50;;;21.50;60.30;;;;;;6245773;22;92591;-65
2023/06/27 03:38:02;;;;;;;3.80;0.43;;;21.50;60.40;;;;;;6247303;22;92323;-65
2023/06/27 03:40:28;;;;;;;9.85;0.85;;;21.50;59.90;;;;;;6246840;22;92516;-66
2023/06/27 03:42:55;;;;;;;4.22;0.60;;;21.40;60.10;;;;;;6247937;22;92284;-66
2023/06/27 03:45:21;;;;;;;1.80;0.30;;;21.40;59.70;;;;;;6246073;22;93751;-70
2023/06/27 03:47:47;;;;;;;2.67;0.52;;;21.40;59.50;;;;;;6246589;22;93867;-70
2023/06/27 03:50:13;;;;;;;4.25;0.75;;;21.50;59.50;;;;;;6246708;22;92415;-71
2023/06/27 03:52:39;;;;;;;3.60;0.60;;;21.40;59.40;;;;;;6246874;22;92832;-72
2023/06/27 03:55:05;;;;;;;5.32;0.43;;;21.40;59.60;;;;;;6246335;22;92733;-70
2023/06/27 03:57:31;;;;;;;3.78;0.57;;;21.40;59.30;;;;;;6247619;22;92411;-70
2023/06/27 03:59:57;;;;;;;4.63;0.57;;;21.40;59.60;;;;;;6219378;22;92242;-72
2023/06/27 04:02:22;;;;;;;2.65;0.80;;;21.40;60.00;;;;;;6248161;22;91742;-71
2023/06/27 04:04:48;;;;;;;5.30;0.65;;;21.40;59.70;;;;;;6246194;22;93047;-71
2023/06/27 04:07:14;;;;;;;5.88;0.43;;;21.40;59.50;;;;;;6246856;22;92770;-73
2023/06/27 04:09:41;;;;;;;4.82;0.55;;;21.40;59.40;;;;;;6246522;22;93366;-69
2023/06/27 04:12:08;;;;;;;3.70;0.40;;;21.40;59.50;;;;;;6247653;22;92331;-70
2023/06/27 04:14:34;;;;;;;5.68;0.63;;;21.40;59.10;;;;;;6246338;22;95403;-70
2023/06/27 04:16:59;;;;;;;2.80;0.50;;;21.40;59.20;;;;;;6233663;22;92290;-70
2023/06/27 04:19:25;;;;;;;2.83;1.13;;;21.40;59.30;;;;;;6216047;22;92395;-71
2023/06/27 04:21:51;;;;;;;4.35;0.40;;;21.40;59.00;;;;;;6216520;22;92347;-71
2023/06/27 04:24:16;;;;;;;2.83;0.65;;;21.40;59.10;;;;;;6216111;22;93330;-72
2023/06/27 04:26:42;;;;;;;5.25;0.57;;;21.40;59.40;;;;;;6215591;22;92439;-71
2023/06/27 04:29:08;;;;;;;5.35;0.40;;;21.40;58.80;;;;;;6216350;22;92280;-70
2023/06/27 04:31:34;;;;;;;3.75;0.40;;;21.40;58.90;;;;;;6216215;22;92117;-72
2023/06/27 04:33:59;;;;;;;7.75;0.60;;;21.40;58.80;;;;;;6214847;22;94230;-72
2023/06/27 04:36:28;;;;;;;5.40;0.77;;;21.40;59.00;;;;;;6215668;22;93143;-72
2023/06/27 04:38:54;;;;;;;4.75;0.50;;;21.50;58.70;;;;;;6216045;22;91989;-72
2023/06/27 04:41:20;;;;;;;3.58;0.57;;;21.50;59.30;;;;;;6215899;22;92290;-70
2023/06/27 04:43:45;;;;;;;3.10;0.90;;;21.50;58.40;;;;;;6213395;22;93473;-75
2023/06/27 04:46:11;;;;;;;5.70;0.77;;;21.40;58.40;;;;;;6213370;22;92336;-73
2023/06/27 04:48:37;;;;;;;4.47;0.63;;;21.40;58.40;;;;;;6215525;22;92367;-73
2023/06/27 04:51:03;;;;;;;6.85;0.68;;;21.60;60.10;;;;;;6215551;22;91698;-74
2023/06/27 04:53:30;;;;;;;6.22;0.60;;;21.80;61.20;;;;;;6214872;22;93312;-75
2023/06/27 04:55:56;;;;;;;5.13;0.70;;;22.20;58.80;;;;;;6215012;22;92629;-75
2023/06/27 04:58:21;;;;;;;4.68;0.60;;;22.40;57.70;;;;;;6215747;22;93246;-76
2023/06/27 05:00:48;;;;;;;3.22;0.80;;;22.40;57.50;;;;;;6215651;22;92387;-75
2023/06/27 05:03:14;;;;;;;6.38;0.65;;;22.10;58.10;;;;;;6214345;22;93236;-76
2023/06/27 05:05:40;;;;;;;3.95;0.65;;;22.10;58.80;;;;;;6215268;22;93517;-73
2023/06/27 05:08:07;;;;;;;2.30;0.30;;;22.40;57.50;;;;;;6215360;22;92204;-75
2023/06/27 05:10:33;;;;;;;8.05;0.50;;;22.50;57.90;;;;;;6215830;22;92052;-76
2023/06/27 05:13:00;;;;;;;6.85;0.77;;;22.30;58.20;;;;;;6214534;22;92715;-74
2023/06/27 05:15:26;;;;;;;4.22;0.77;;;22.20;59.30;;;;;;6215290;22;92861;-70
2023/06/27 05:17:54;;;;;;;5.53;0.70;;;22.20;59.40;;;;;;6215217;22;92700;-71
2023/06/27 05:20:20;;;;;;;4.20;0.70;;;22.30;59.20;;;;;;6215127;22;92362;-53
2023/06/27 05:22:46;;;;;;;3.25;0.47;;;22.40;59.00;;;;;;6214432;22;94570;-52
2023/06/27 05:25:12;;;;;;;7.00;0.80;;;22.70;58.00;;;;;;6215355;22;93707;-54
2023/06/27 05:27:38;;;;;;;6.18;0.85;;;22.80;57.20;;;;;;6216051;22;92302;-53
2023/06/27 05:30:05;;;;;;;6.25;0.82;;;22.50;58.10;;;;;;6215299;22;92369;-52
2023/06/27 05:32:30;;;;;;;2.55;0.68;;;22.70;58.00;;;;;;6214900;22;94271;-50
2023/06/27 05:34:56;;;;;;;3.70;0.80;;;22.70;58.10;;;;;;6214271;22;92740;-50
2023/06/27 05:37:21;;;;;;;6.15;0.70;;;22.80;58.00;;;;;;6214063;22;92369;-71
2023/06/27 05:39:47;;;;;;;4.85;0.70;;;22.90;58.10;;;;;;6214687;22;91643;-71
2023/06/27 05:42:13;;;;;;;4.85;0.90;;;22.80;57.30;;;;;;6187275;22;93384;-72
2023/06/27 05:44:38;;;;;;;7.88;1.30;;;22.80;57.50;;;;;;6213545;22;96083;-72
2023/06/27 05:47:05;;;;;;;4.68;0.52;;;22.80;57.40;;;;;;6214114;22;93165;-71
2023/06/27 05:49:31;;;;;;;3.92;0.52;;;22.80;57.80;;;;;;6216198;22;92353;-71
2023/06/27 05:51:57;;;;;;;3.42;0.60;;;22.70;58.00;;;;;;6214654;22;93552;-71
2023/06/27 05:54:23;;;;;;;3.58;0.82;;;22.60;58.20;;;;;;6214677;22;92449;-71
2023/06/27 05:56:49;;;;;;;3.50;0.63;;;22.50;58.80;;;;;;6215798;22;92594;-71
2023/06/27 05:59:15;;;;;;;2.00;0.47;;;22.50;58.50;;;;;;6215262;22;92355;-72
2023/06/27 06:01:40;;;;;;;6.38;0.50;;;22.70;58.70;;;;;;6215003;22;93726;-71
2023/06/27 06:04:06;;;;;;;3.78;0.82;;;22.80;58.60;;;;;;6214999;22;92681;-72
2023/06/27 06:06:38;;;;;;;3.50;0.68;;;22.90;57.30;;;;;;6215450;22;92282;-71
2023/06/27 06:09:07;;;;;;;6.93;1.10;;;22.90;57.90;;;;;;6215471;22;92600;-71
2023/06/27 06:11:36;;;;;;;5.45;0.80;;;23.10;57.20;;;;;;6214394;22;94661;-71
2023/06/27 06:14:02;;;;;;;;;;;23.10;57.60;;;;;;6215444;22;93715;-72
2023/06/27 06:16:31;;;;;;;3.80;0.32;;;23.30;56.80;;;;;;6216637;22;92213;-72
2023/06/27 06:18:58;;;;;;;5.20;0.80;;;23.60;56.20;;;;;;6215473;22;92364;-71
2023/06/27 06:21:23;;;;;;;5.22;0.88;;;23.90;55.50;;;;;;6214723;22;92951;-71
2023/06/27 06:23:49;;;;;;;7.55;1.02;;;24.40;55.50;;;;;;6214386;22;92423;-71
2023/06/27 06:26:15;;;;;;;5.07;1.10;;;25.30;53.50;;;;;;6215002;22;92026;-72
2023/06/27 06:28:40;;;;;;;4.68;0.90;;;26.10;51.10;;;;;;6216052;22;91459;-72
2023/06/27 06:31:06;;;;;;;5.00;0.73;;;26.30;50.70;;;;;;6214126;22;93735;-72
2023/06/27 06:33:32;;;;;;;4.28;0.80;;;26.40;50.40;;;;;;6214732;22;92632;-71
2023/06/27 06:35:58;;;;;;;2.90;0.70;;;26.30;50.90;;;;;;6214670;22;93145;-71
2023/06/27 06:38:25;;;;;;;5.47;1.20;;;26.20;50.90;;;;;;6215263;22;92483;-72
2023/06/27 06:40:50;;;;;;;3.15;1.02;;;26.10;51.60;;;;;;6214679;22;92478;-72
2023/06/27 06:43:16;;;;;;;7.50;1.30;;;26.10;50.30;;;;;;6214400;22;92345;-71
2023/06/27 06:45:42;;;;;;;7.88;1.00;;;26.00;51.90;;;;;;6215506;22;92351;-71
2023/06/27 06:48:07;;;;;;;7.20;1.52;;;25.80;51.40;;;;;;6215117;22;92084;-72
2023/06/27 06:50:33;;;;;;;4.97;1.02;;;25.90;51.50;;;;;;6214508;22;93009;-73
2023/06/27 06:52:59;;;;;;;3.63;1.23;;;25.70;51.80;;;;;;6214768;22;92991;-73
2023/06/27 06:55:25;;;;;;;6.63;1.00;;;25.40;51.10;;;;;;6215043;22;91980;-72
2023/06/27 06:57:50;;;;;;;3.22;0.88;;;25.10;52.10;;;;;;6215321;22;92144;-71
2023/06/27 07:00:17;;;;;;;4.35;0.80;;;25.00;51.30;;;;;;6215920;22;93546;-71
2023/06/27 07:02:43;;;;;;;4.13;1.00;;;24.70;52.50;;;;;;6215654;22;93586;-71
2023/06/27 07:05:09;;;;;;;6.05;0.88;;;24.30;53.70;;;;;;6216551;22;92404;-72
2023/06/27 07:07:34;;;;;;;4.25;0.90;;;24.00;53.40;;;;;;6216814;22;91995;-71
2023/06/27 07:10:00;;;;;;;3.10;0.70;;;24.00;54.00;;;;;;6215815;22;92725;-72
2023/06/27 07:12:26;;;;;;;5.80;1.08;;;23.80;54.00;;;;;;6215848;22;92797;-71
2023/06/27 07:14:51;;;;;;;3.30;1.10;;;23.80;55.40;;;;;;6216651;22;92063;-71
2023/06/27 07:17:17;;;;;;;3.45;0.77;;;23.60;55.80;;;;;;6216244;22;91550;-71
2023/06/27 07:19:43;;;;;;;3.08;0.98;;;23.50;55.40;;;;;;6216035;22;93147;-71
2023/06/27 07:22:09;;;;;;;4.85;0.68;;;23.50;55.10;;;;;;6216029;22;92350;-71
2023/06/27 07:24:35;;;;;;;3.50;1.00;;;23.40;56.00;;;;;;6215639;22;93208;-72
2023/06/27 07:27:00;;;;;;;3.85;0.65;;;23.60;56.40;;;;;;6216773;22;92345;-71
2023/06/27 07:29:26;;;;;;;4.47;1.10;;;23.90;55.80;;;;;;6215702;22;92386;-71
2023/06/27 07:31:52;;;;;;;4.53;0.52;;;24.20;56.00;;;;;;6215947;22;93113;-71
2023/06/27 07:34:17;;;;;;;4.35;0.90;;;24.50;54.40;;;;;;6216386;22;92359;-71
2023/06/27 07:36:43;;;;;;;5.25;0.88;;;24.70;53.10;;;;;;6216284;22;92208;-70
2023/06/27 07:39:10;;;;;;;4.30;1.15;;;25.50;53.20;;;;;;6215843;22;93178;-69
2023/06/27 07:41:36;;;;;;;4.53;1.02;;;26.40;51.90;;;;;;6216142;22;92743;-71
2023/06/27 07:44:02;;;;;;;6.85;1.58;;;27.50;49.60;;;;;;6215970;22;92368;-72
2023/06/27 07:46:28;;;;;;;5.45;1.60;;;28.50;48.10;;;;;;6216264;22;92375;-72
2023/06/27 07:48:58;;;;;;;7.95;1.77;;;29.60;47.40;;;;;;6215328;22;93888;-72
2023/06/27 07:51:25;;;;;;;3.80;1.55;;;30.60;44.90;;;;;;6215497;22;93917;-72
2023/06/27 07:53:50;;;;;;;4.18;1.65;;;31.10;44.90;;;;;;6216169;22;92478;-72
2023/06/27 07:56:16;;;;;;;6.00;1.48;;;32.40;42.60;;;;;;6216347;22;92446;-71
2023/06/27 07:58:44;;;;;;;5.30;2.53;;;32.20;41.70;;;;;;6215580;22;93154;-71
2023/06/27 08:01:10;;;;;;;4.72;1.60;;;31.90;42.60;;;;;;6214530;22;93211;-72
2023/06/27 08:03:36;;;;;;;7.65;2.28;;;32.00;42.60;;;;;;6216123;22;92332;-72
2023/06/27 08:06:04;;;;;;;6.93;2.35;;;32.40;42.10;;;;;;6216873;22;91973;-72
2023/06/27 08:08:30;;;;;;;4.05;1.80;;;32.30;42.10;;;;;;6215518;22;93299;-71
2023/06/27 08:10:56;;;;;;;7.10;1.92;;;32.00;43.10;;;;;;6215151;22;93124;-71
2023/06/27 08:13:22;;;;;;;5.03;2.25;;;32.40;41.90;;;;;;6215572;22;93308;-71
2023/06/27 08:15:48;;;;;;;7.85;2.03;;;32.30;41.40;;;;;;6216339;22;92415;-72
2023/06/27 08:18:13;;;;;;;3.58;1.98;;;32.70;41.50;;;;;;6214696;22;92981;-71
2023/06/27 08:20:39;;;;;;;4.70;2.33;;;33.10;40.60;;;;;;6188395;22;93737;-71
2023/06/27 08:23:06;;;;;;;4.72;1.90;;;33.40;40.70;;;;;;6216036;22;92292;-71
2023/06/27 08:25:32;;;;;;;5.65;1.77;;;33.10;40.20;;;;;;6216562;22;92546;-71
2023/06/27 08:27:58;;;;;;;4.40;1.60;;;32.70;41.00;;;;;;6215665;22;93558;-71
2023/06/27 08:30:23;;;;;;;5.82;1.75;;;32.40;42.10;;;;;;6215699;22;92771;-71
2023/06/27 08:32:49;;;;;;;3.72;1.23;;;32.10;42.10;;;;;;6216089;22;92408;-72
2023/06/27 08:35:15;;;;;;;6.35;1.52;;;31.80;41.70;;;;;;6216405;22;92396;-71
2023/06/27 08:37:41;;;;;;;5.20;1.40;;;31.70;41.20;;;;;;6215069;22;93527;-72
2023/06/27 08:40:09;;;;;;;3.20;1.90;;;31.40;41.40;;;;;;6215447;22;92251;-72
2023/06/27 08:42:34;;;;;;;4.88;2.20;;;31.60;42.30;;;;;;6215651;22;92391;-72
2023/06/27 08:45:01;;;;;;;4.53;2.53;;;31.90;41.70;;;;;;6216235;22;92265;-72
2023/06/27 08:47:29;;;;;;;3.42;1.45;;;32.40;42.00;;;;;;6215613;22;93203;-71
2023/06/27 08:50:03;;;;;;;4.35;2.20;;;32.90;41.80;;;;;;6188369;22;94185;-71
2023/06/27 08:52:36;;;;;;;5.05;2.13;;;33.20;42.20;;;;;;6216183;22;92324;-71
2023/06/27 08:55:06;;;;;;;3.95;2.28;;;33.00;41.20;;;;;;6216244;22;91809;-71
2023/06/27 08:57:34;;;;;;;6.78;1.67;;;33.40;41.20;;;;;;6215317;22;92582;-72
2023/06/27 09:00:13;;;;;;;6.38;1.95;;;33.20;41.60;;;;;;6188463;22;94219;-71
2023/06/27 09:02:40;;;;;;;4.72;1.88;;;32.50;41.90;;;;;;6215435;22;92927;-71
2023/06/27 09:05:07;;;;;;;6.00;1.83;;;32.00;41.90;;;;;;6216245;22;92065;-71
2023/06/27 09:07:33;;;;;;;4.57;1.17;;;31.30;42.10;;;;;;6215020;22;92533;-71
2023/06/27 09:09:59;;;;;;;4.30;1.75;;;30.80;43.20;;;;;;6215141;22;93008;-71
2023/06/27 09:12:27;;;;;;;6.45;1.42;;;30.10;44.30;;;;;;6215876;22;92421;-71
2023/06/27 09:14:53;;;;;;;4.43;0.93;;;29.50;45.10;;;;;;6216054;22;92376;-71
2023/06/27 09:17:19;;;;;;;5.72;1.50;;;28.90;46.20;;;;;;6214910;22;92757;-72
2023/06/27 09:19:45;;;;;;;3.70;1.00;;;28.80;46.00;;;;;;6215934;22;92512;-70
2023/06/27 09:22:11;;;;;;;8.85;1.65;;;28.60;45.90;;;;;;6215565;22;92480;-71
2023/06/27 09:24:40;;;;;;;8.57;2.05;;;28.50;47.10;;;;;;6216102;22;92559;-71
2023/06/27 09:27:26;;;;;;;7.95;1.48;;;28.40;47.70;;;;;;6214605;22;94110;-71
2023/06/27 09:29:52;;;;;;;4.80;0.73;;;28.50;46.70;;;;;;6214612;22;93909;-71
2023/06/27 09:32:18;;;;;;;4.30;1.25;;;28.30;47.30;;;;;;6215876;22;92322;-71
2023/06/27 09:34:43;;;;;;;5.43;1.73;;;28.30;47.10;;;;;;6215744;22;92019;-71
2023/06/27 09:37:09;;;;;;;8.00;1.58;;;28.30;47.50;;;;;;6215224;22;93555;-71
2023/06/27 09:39:35;;;;;;;6.90;1.70;;;28.40;46.60;;;;;;6214895;22;92433;-71
2023/06/27 09:42:02;;;;;;;5.82;1.80;;;28.40;47.30;;;;;;6215901;22;92583;-71
2023/06/27 09:44:27;;;;;;;7.35;2.05;;;28.70;46.60;;;;;;6216159;22;91743;-71
2023/06/27 09:46:53;;;;;;;5.53;1.83;;;29.10;47.10;;;;;;6215433;22;92590;-72
2023/06/27 09:49:20;;;;;;;5.25;1.70;;;30.30;45.20;;;;;;6213235;22;93183;-71
2023/06/27 09:51:49;;;;;;;6.20;1.80;;;30.90;43.60;;;;;;6213645;22;93225;-71
2023/06/27 09:54:18;;;;;;;5.78;1.73;;;31.00;44.80;;;;;;6215553;22;92012;-72
2023/06/27 09:56:47;;;;;;;4.55;1.45;;;31.10;44.80;;;;;;6215270;22;94049;-71
2023/06/27 09:59:12;;;;;;;5.43;2.22;;;31.10;43.60;;;;;;6214351;22;92740;-72
2023/06/27 10:01:40;;;;;;;7.18;1.67;;;31.30;43.60;;;;;;6214464;22;92630;-71
2023/06/27 10:04:06;;;;;;;7.32;2.08;;;31.30;43.00;;;;;;6215353;22;92427;-71
2023/06/27 10:06:33;;;;;;;7.70;2.20;;;31.50;43.90;;;;;;6214476;22;93848;-71
2023/06/27 10:08:59;;;;;;;4.40;2.03;;;31.90;43.50;;;;;;6214945;22;92695;-72
2023/06/27 10:11:26;;;;;;;7.57;2.65;;;32.30;41.00;;;;;;6214437;22;91975;-71
2023/06/27 10:13:52;;;;;;;7.78;2.10;;;32.60;42.90;;;;;;6214437;22;92539;-71
2023/06/27 10:16:19;;;;;;;5.65;2.00;;;32.90;43.00;;;;;;6212352;22;93939;-71
2023/06/27 10:18:45;;;;;;;3.83;1.38;;;32.30;40.50;;;;;;6214138;22;93074;-71
2023/06/27 10:21:11;;;;;;;5.43;2.35;;;31.80;42.00;;;;;;6213663;22;92375;-71
2023/06/27 10:23:44;;;;;;;6.80;1.88;;;31.30;42.10;;;;;;6214424;22;92401;-72
2023/06/27 10:26:10;;;;;;;14.00;1.98;;;30.80;42.00;;;;;;6214240;22;93095;-71
2023/06/27 10:28:36;;;;;;;4.88;1.65;;;30.50;43.50;;;;;;6213968;22;92721;-72
2023/06/27 10:31:05;;;;;;;7.00;1.85;;;30.60;43.30;;;;;;6213895;22;92803;-71
2023/06/27 10:33:32;;;;;;;4.38;1.73;;;30.60;42.00;;;;;;6216263;22;91231;-72
2023/06/27 10:36:05;;;;;;;5.78;2.10;;;30.60;42.60;;;;;;6215164;22;92863;-71
2023/06/27 10:38:45;;;;;;;5.90;1.80;;;30.60;44.40;;;;;;6215881;22;92734;-72
2023/06/27 10:41:33;;;;;;;4.35;2.30;;;30.60;44.50;;;;;;6214832;22;93322;-72
2023/06/27 10:44:09;;;;;;;6.38;1.92;;;30.60;44.00;;;;;;6216191;22;92619;-72
2023/06/27 10:46:34;;;;;;;7.43;1.60;;;31.00;42.40;;;;;;6214396;22;93421;-72
2023/06/27 10:49:03;;;;;;;6.57;1.20;;;30.90;43.20;;;;;;6214869;22;92442;-72
2023/06/27 10:51:35;;;;;;;;;;;30.60;43.70;;;;;;6215567;22;92371;-71
2023/06/27 10:54:11;;;;;;;5.13;1.95;;;30.60;44.00;;;;;;6217035;22;92084;-71
2023/06/27 10:56:44;;;;;;;5.68;2.05;;;30.40;45.40;;;;;;6213481;22;93198;-74
2023/06/27 10:59:16;;;;;;;3.70;2.03;;;29.90;44.50;;;;;;6213981;22;92999;-70
2023/06/27 11:02:07;;;;;;;2.72;1.52;;;29.40;45.60;;;;;;6214430;22;92391;-71
2023/06/27 11:04:44;;;;;;;6.05;1.85;;;29.30;45.70;;;;;;6213591;22;92402;-73
2023/06/27 11:07:17;;;;;;;5.55;1.35;;;29.70;47.20;;;;;;6213257;22;93482;-72
2023/06/27 11:09:54;;;;;;;4.53;1.75;;;30.10;45.30;;;;;;6213203;22;93844;-73
2023/06/27 11:12:21;;;;;;;3.63;1.40;;;30.00;44.30;;;;;;6214541;22;92044;-72
2023/06/27 11:14:51;;;;;;;3.97;1.80;;;30.10;44.20;;;;;;6214035;22;92520;-71
2023/06/27 11:17:17;;;;;;;5.78;1.38;;;30.10;44.40;;;;;;6213318;22;93618;-73
2023/06/27 11:19:43;;;;;;;4.75;1.60;;;29.90;44.10;;;;;;6213324;22;92783;-72
2023/06/27 11:22:10;;;;;;;5.78;1.90;;;29.80;41.70;;;;;;6214316;22;92522;-71
2023/06/27 11:24:35;;;;;;;6.85;1.95;;;29.50;42.80;;;;;;6214827;22;91309;-72
2023/06/27 11:27:06;;;;;;;4.93;1.63;;;29.40;43.90;;;;;;6211767;22;93000;-73
2023/06/27 11:29:33;;;;;;;3.72;1.02;;;29.40;44.00;;;;;;6212897;22;93246;-72
2023/06/27 11:31:59;;;;;;;4.50;1.65;;;29.30;43.50;;;;;;6214514;22;93275;-71
2023/06/27 11:34:25;;;;;;;6.10;1.58;;;29.20;42.60;;;;;;6216550;22;92035;-72
2023/06/27 11:36:53;;;;;;;3.42;1.40;;;29.20;43.00;;;;;;6214939;22;92638;-72
2023/06/27 11:39:18;;;;;;;8.18;2.45;;;29.20;43.10;;;;;;6187788;22;96029;-73
2023/06/27 11:41:45;;;;;;;8.77;1.90;;;29.30;44.10;;;;;;6216050;22;92869;-73
2023/06/27 11:44:15;;;;;;;5.82;2.63;;;29.50;44.80;;;;;;6215400;22;92271;-72
2023/06/27 11:46:51;;;;;;;5.43;1.77;;;29.30;45.40;;;;;;6215577;22;92436;-72
2023/06/27 11:49:21;;;;;;;5.65;1.33;;;29.40;44.60;;;;;;6216181;22;92859;-73
2023/06/27 11:51:47;;;;;;;8.05;1.65;;;29.30;43.50;;;;;;6216112;22;92500;-71
2023/06/27 11:54:19;;;;;;;5.60;1.38;;;29.10;42.80;;;;;;6216846;22;92306;-72
2023/06/27 11:56:45;;;;;;;7.18;1.75;;;29.10;43.40;;;;;;6214806;22;94025;-71
2023/06/27 11:59:13;;;;;;;6.55;1.50;;;29.20;42.00;;;;;;6215847;22;93174;-72
2023/06/27 12:01:45;;;;;;;7.95;1.50;;;29.40;43.00;;;;;;6215917;22;92325;-72
2023/06/27 12:04:16;;;;;;;3.75;1.30;;;29.50;43.00;;;;;;6216491;22;92406;-72
2023/06/27 12:06:48;;;;;;;6.07;1.83;;;29.50;41.20;;;;;;6215522;22;93030;-72
2023/06/27 12:09:22;;;;;;;4.68;1.40;;;29.40;43.10;;;;;;6215309;22;92467;-72
2023/06/27 12:11:59;;;;;;;4.78;1.45;;;29.20;41.40;;;;;;6216503;22;92242;-72
2023/06/27 12:14:26;;;;;;;3.08;1.50;;;29.10;43.00;;;;;;6217263;22;91721;-71
2023/06/27 12:16:53;;;;;;;5.60;1.80;;;29.10;43.60;;;;;;6215064;22;93260;-71
2023/06/27 12:19:21;;;;;;;8.10;1.48;;;29.00;43.50;;;;;;6215609;22;92843;-71
2023/06/27 12:21:47;;;;;;;7.07;1.80;;;28.80;43.20;;;;;;6215314;22;93227;-71
2023/06/27 12:24:13;;;;;;;8.48;1.77;;;28.80;43.20;;;;;;6216387;22;92353;-71
2023/06/27 12:26:39;;;;;;;2.85;1.30;;;28.60;43.20;;;;;;6215832;22;93089;-72
2023/06/27 12:29:07;;;;;;;3.03;1.50;;;28.60;45.40;;;;;;6215028;22;92889;-72
2023/06/27 12:31:34;;;;;;;9.68;1.73;;;28.70;44.10;;;;;;6216196;22;92682;-72
2023/06/27 12:34:00;;;;;;;5.85;1.60;;;28.80;46.20;;;;;;6216276;22;92346;-72
2023/06/27 12:36:27;;;;;;;5.18;1.50;;;29.00;43.20;;;;;;6214950;22;93542;-72
2023/06/27 12:38:55;;;;;;;7.75;1.88;;;29.10;44.10;;;;;;6215955;22;92253;-72
2023/06/27 12:41:23;;;;;;;3.65;1.42;;;29.20;44.10;;;;;;6216096;22;92349;-73
2023/06/27 12:43:49;;;;;;;8.43;1.63;;;29.40;46.60;;;;;;6215960;22;92423;-71
2023/06/27 12:46:15;;;;;;;6.35;1.70;;;29.60;45.30;;;;;;6214783;22;93441;-72
2023/06/27 12:48:42;;;;;;;5.70;1.75;;;29.70;43.00;;;;;;6215373;22;94349;-72
2023/06/27 12:51:08;;;;;;;6.32;1.92;;;29.70;44.70;;;;;;6215798;22;92642;-71
2023/06/27 12:53:34;;;;;;;5.63;1.55;;;29.40;46.40;;;;;;6216486;22;92666;-71
2023/06/27 12:56:02;;;;;;;7.03;1.55;;;29.40;44.40;;;;;;6214500;22;93019;-71
2023/06/27 12:58:31;;;;;;;6.03;1.67;;;29.30;46.00;;;;;;6215594;22;93173;-73
2023/06/27 13:01:00;;;;;;;5.80;1.75;;;29.40;43.20;;;;;;6215301;22;92480;-73
2023/06/27 13:03:27;;;;;;;6.53;1.13;;;29.20;46.70;;;;;;6216758;22;91627;-71
2023/06/27 13:05:52;;;;;;;6.82;1.60;;;29.00;48.10;;;;;;6215145;22;92964;-72
2023/06/27 13:08:18;;;;;;;10.25;0.93;;;29.20;47.80;;;;;;6215879;22;92567;-72
2023/06/27 13:10:44;;;;;;;4.93;1.48;;;29.20;44.90;;;;;;6215094;22;93310;-73
2023/06/27 13:13:10;;;;;;;6.93;1.73;;;29.10;46.10;;;;;;6216219;22;92206;-73
2023/06/27 13:15:36;;;;;;;5.72;1.80;;;29.10;44.80;;;;;;6215170;22;92484;-72
2023/06/27 13:18:02;;;;;;;7.00;1.05;;;29.10;47.30;;;;;;6214565;22;93292;-71
2023/06/27 13:20:28;;;;;;;4.78;1.90;;;29.20;45.20;;;;;;6216042;22;92449;-72
2023/06/27 13:22:53;;;;;;;7.03;1.90;;;29.00;46.00;;;;;;6215524;22;92300;-72
2023/06/27 13:25:21;;;;;;;8.82;1.52;;;29.00;45.10;;;;;;6215250;22;93116;-72
2023/06/27 13:27:47;;;;;;;3.78;1.65;;;28.80;44.40;;;;;;6215380;22;93063;-72
2023/06/27 13:30:12;;;;;;;6.22;1.98;;;28.60;45.00;;;;;;6215816;22;92373;-72
2023/06/27 13:32:38;;;;;;;3.47;1.45;;;28.50;47.00;;;;;;6215695;22;92541;-71
2023/06/27 13:35:04;;;;;;;5.45;1.52;;;28.30;47.00;;;;;;6214813;22;93604;-72
2023/06/27 13:37:30;;;;;;;6.63;1.80;;;28.40;45.40;;;;;;6215054;22;94115;-72
2023/06/27 13:39:56;;;;;;;5.35;1.55;;;28.20;45.00;;;;;;6216080;22;92560;-72
2023/06/27 13:42:21;;;;;;;7.57;1.58;;;28.20;45.40;;;;;;6215697;22;92454;-71
2023/06/27 13:44:47;;;;;;;7.97;2.03;;;28.30;46.80;;;;;;6214862;22;93085;-71
2023/06/27 13:47:13;;;;;;;5.30;1.55;;;28.20;45.30;;;;;;6215581;22;93252;-71
2023/06/27 13:49:39;;;;;;;5.00;1.33;;;28.30;44.60;;;;;;6215472;22;92540;-71
2023/06/27 13:52:06;;;;;;;4.07;1.40;;;28.30;46.60;;;;;;6216728;22;91245;-71
2023/06/27 13:54:33;;;;;;;5.57;1.30;;;28.30;46.60;;;;;;6214929;22;93209;-72
2023/06/27 13:56:59;;;;;;;6.25;1.42;;;28.40;45.90;;;;;;6215127;22;93326;-71
2023/06/27 13:59:25;;;;;;;5.07;2.03;;;28.40;45.80;;;;;;6214997;22;93303;-71
2023/06/27 14:01:54;;;;;;;4.50;1.77;;;28.30;44.00;;;;;;6215784;22;92026;-71
2023/06/27 14:04:20;;;;;;;6.20;1.60;;;28.20;45.20;;;;;;6214904;22;92608;-72
2023/06/27 14:06:51;;;;;;;4.78;1.42;;;28.10;45.00;;;;;;6214941;22;92353;-71
2023/06/27 14:09:18;;;;;;;4.97;1.75;;;28.00;44.80;;;;;;6216302;22;92306;-72
2023/06/27 14:11:44;;;;;;;5.45;1.48;;;28.00;45.20;;;;;;6216795;22;92475;-71
2023/06/27 14:14:10;;;;;;;7.93;1.60;;;27.80;45.30;;;;;;6216451;22;93071;-71
2023/06/27 14:16:36;;;;;;;4.45;1.73;;;27.70;45.50;;;;;;6214761;22;92263;-71
2023/06/27 14:19:01;;;;;;;3.60;1.40;;;27.60;46.10;;;;;;6217279;22;92414;-72
2023/06/27 14:21:28;;;;;;;5.97;1.70;;;27.40;45.20;;;;;;6215600;22;92358;-72
2023/06/27 14:23:56;;;;;;;4.10;1.65;;;27.30;45.40;;;;;;6212982;22;93708;-72
2023/06/27 14:26:22;;;;;;;4.30;0.88;;;27.20;47.60;;;;;;6214125;22;93720;-71
2023/06/27 14:28:48;;;;;;;5.18;1.30;;;27.40;47.20;;;;;;6216927;22;92391;-71
2023/06/27 14:31:13;;;;;;;4.57;1.08;;;27.50;46.60;;;;;;6217113;22;91941;-71
2023/06/27 14:33:39;;;;;;;5.65;1.48;;;27.60;48.30;;;;;;6216001;22;92567;-71
2023/06/27 14:36:05;;;;;;;3.63;1.25;;;27.60;45.60;;;;;;6214660;22;93375;-71
2023/06/27 14:38:31;;;;;;;9.98;2.13;;;27.70;48.50;;;;;;6213930;22;92405;-71
2023/06/27 14:40:57;;;;;;;4.35;1.58;;;27.80;47.40;;;;;;6216132;22;92108;-70
2023/06/27 14:43:23;;;;;;;3.65;1.45;;;27.80;48.40;;;;;;6215354;22;93073;-72
2023/06/27 14:45:49;;;;;;;5.50;1.20;;;27.60;46.40;;;;;;6215201;22;93503;-71
2023/06/27 14:48:15;;;;;;;6.60;1.27;;;27.50;46.60;;;;;;6215214;22;93303;-72
2023/06/27 14:50:41;;;;;;;4.35;0.80;;;27.40;45.60;;;;;;6217066;22;92676;-72
2023/06/27 14:53:08;;;;;;;4.40;1.60;;;27.10;45.20;;;;;;6215425;22;93688;-70
2023/06/27 14:55:33;;;;;;;2.72;0.70;;;27.00;45.80;;;;;;6188944;22;94577;-71
2023/06/27 14:58:00;;;;;;;4.38;1.20;;;26.90;45.40;;;;;;6216122;22;92329;-71
2023/06/27 15:00:26;;;;;;;10.52;1.50;;;26.90;46.20;;;;;;6216311;22;92388;-70
2023/06/27 15:02:51;;;;;;;6.05;1.10;;;26.70;45.30;;;;;;6215965;22;92963;-71
2023/06/27 15:05:17;;;;;;;6.90;1.50;;;26.70;46.50;;;;;;6216229;22;91639;-70
2023/06/27 15:07:43;;;;;;;4.82;1.55;;;26.90;46.10;;;;;;6216339;22;92333;-71
2023/06/27 15:10:09;;;;;;;7.88;1.20;;;27.00;47.20;;;;;;6216225;22;92337;-71
2023/06/27 15:12:35;;;;;;;5.20;1.30;;;26.90;45.90;;;;;;6214990;22;93794;-71
2023/06/27 15:15:04;;;;;;;4.32;1.70;;;26.80;46.40;;;;;;6214698;22;94472;-71
2023/06/27 15:17:30;;;;;;;5.03;1.42;;;26.60;45.40;;;;;;6214469;22;92637;-67
2023/06/27 15:19:56;;;;;;;4.30;1.45;;;26.10;45.80;;;;;;6215366;22;92290;-67
2023/06/27 15:22:24;;;;;;;3.15;1.17;;;26.00;46.00;;;;;;6214929;22;93432;-67
2023/06/27 15:24:52;;;;;;;3.83;1.40;;;26.10;47.30;;;;;;6214301;22;92652;-67
2023/06/27 15:27:19;;;;;;;4.82;1.13;;;26.00;46.40;;;;;;6215566;22;92486;-67
2023/06/27 15:29:45;;;;;;;3.50;1.50;;;25.90;46.40;;;;;;6216272;22;91344;-53
2023/06/27 15:32:11;;;;;;;3.70;1.23;;;25.70;47.80;;;;;;6214511;22;93647;-51
2023/06/27 15:34:42;;;;;;;5.15;1.40;;;26.00;46.80;;;;;;6213896;22;94114;-53
2023/06/27 15:37:08;;;;;;;5.60;1.58;;;26.30;47.30;;;;;;6214883;22;93289;-53
2023/06/27 15:39:34;;;;;;;4.10;1.15;;;26.60;45.90;;;;;;6216313;22;92113;-51
2023/06/27 15:41:59;;;;;;;3.72;1.80;;;26.70;45.70;;;;;;6214268;22;93969;-49
2023/06/27 15:44:25;;;;;;;7.10;1.38;;;26.40;44.90;;;;;;6215295;22;93171;-52
2023/06/27 15:46:52;;;;;;;3.67;1.23;;;26.40;45.50;;;;;;6215893;22;92359;-50
2023/06/27 15:49:18;;;;;;;3.60;1.10;;;26.00;44.60;;;;;;6215433;22;92053;-52
2023/06/27 15:51:44;;;;;;;4.30;1.27;;;26.00;45.80;;;;;;6215339;22;92662;-51
2023/06/27 15:54:11;;;;;;;5.95;1.27;;;26.10;45.70;;;;;;6214211;22;93078;-53
2023/06/27 15:56:40;;;;;;;5.05;1.17;;;26.00;44.20;;;;;;6215602;22;92310;-53
2023/06/27 15:59:06;;;;;;;6.38;1.15;;;25.90;45.60;;;;;;6214961;22;92463;-52
2023/06/27 16:01:32;;;;;;;6.18;1.55;;;25.90;44.60;;;;;;6213609;22;93938;-52